Aérodrome :
LOGIN :

S'inscrire | Disclaimer

   EN    FR    IT 

 










Légende :    VFR   VFR Marginal   IFR   IFR Intensif   IFR Très Intensif
Visi : 
Plafond : 
>= 8 km
>= 3000ft
5 à 8 km
1000 à 3000 ft
1500m à 5 km
500 à 1000 ft
800 à 1500m
200 à 500 ft
< 800m
< 200 ft
Symboles :   Orages  Brouillard  Fortes neiges  Fortes précipitations  Vent > 20 kt
SIGMETs :   Divers  Orages  Givrage  Turbulence  Onde Orograph.  Cendres Volcan.






- Altitude de l'aérodrome : 446 ft
- Code IATA : VNE


LFRV - Vannes-Meucon

DERNIER METAR :
  • 031530Z AUTO 21007KT 180V250 9999 -RA BKN008/// BKN016/// BKN027/// ///TCU 08/07 Q0984

METARs EXPIRÉS :
  • 031500Z AUTO 22007KT 180V250 9999 -RA BKN005/// OVC010/// ///TCU 08/08 Q0986
  • 031430Z AUTO 19006KT 160V230 6000 RA BKN004/// BKN012/// OVC020/// ///TCU 08/08 Q0987
  • 031400Z AUTO 20005KT 150V240 9999 -RA BKN004/// BKN008/// BKN020/// ///TCU 08/08 Q0988
  • 031330Z AUTO 22005KT 170V250 9999 -RA BKN008/// BKN015/// BKN020/// ///TCU 08/07 Q0989
  • 031300Z AUTO 23006KT 200V280 9999 -RA FEW006/// SCT047/// OVC056/// ///TCU 08/07 Q0991

TAF N/A



MET'MAP, la Météo Aéronautique d'un coup d'oeil ! - Copyright ORBIFLY Décembre 2007 - Disclaimer

ORBIFLY MET'MAP TEAM :

Programmation & Développement : Alexandra Zaïnal
Sur une idée originale de : Baudouin d'Aumeries
Assistance à la programmation : Marc-Olivier Méhu
Soutien technique & logistique : Manuel Goepfert

Contact : metmap@orbifly.com




SOURCES & CREDITS :

   NOAA